createdAt,value
2019-03-23T00:01:09.360Z,7.13
2019-03-23T00:06:05.292Z,7.40
2019-03-23T00:11:01.219Z,6.80
2019-03-23T00:15:57.237Z,8.37
2019-03-23T00:20:53.160Z,8.10
2019-03-23T00:25:49.088Z,8.43
2019-03-23T00:30:44.983Z,8.60
2019-03-23T00:35:41.016Z,8.43
2019-03-23T00:40:36.947Z,8.60
2019-03-23T00:45:32.965Z,8.90
2019-03-23T00:50:28.894Z,7.80
2019-03-23T00:55:24.846Z,7.83
2019-03-23T01:00:20.878Z,8.13
2019-03-23T01:05:16.803Z,8.30
2019-03-23T01:10:13.065Z,8.10
2019-03-23T01:15:12.471Z,8.50
2019-03-23T01:20:12.135Z,7.77
2019-03-23T01:25:09.016Z,7.87
2019-03-23T01:30:10.758Z,7.33
2019-03-23T01:35:07.279Z,9.07
2019-03-23T01:40:05.011Z,8.57
2019-03-23T01:45:01.121Z,7.73
2019-03-23T01:49:57.042Z,7.97
2019-03-23T01:54:52.956Z,7.93
2019-03-23T01:59:48.884Z,8.60
2019-03-23T02:04:44.885Z,8.30
2019-03-23T02:09:40.809Z,8.00
2019-03-23T02:14:36.736Z,7.40
2019-03-23T02:19:32.664Z,7.60
2019-03-23T02:24:29.299Z,8.13
2019-03-23T02:29:25.186Z,8.57
2019-03-23T02:34:21.111Z,9.53
2019-03-23T02:39:17.032Z,9.10
2019-03-23T02:44:12.965Z,7.43
2019-03-23T02:49:08.895Z,8.00
2019-03-23T02:54:11.101Z,8.60
2019-03-23T02:59:07.127Z,6.90
2019-03-23T03:04:03.167Z,7.40
2019-03-23T03:08:59.086Z,8.70
2019-03-23T03:13:55.006Z,7.83
2019-03-23T03:18:50.924Z,7.50
2019-03-23T03:23:48.520Z,7.73
2019-03-23T03:28:44.546Z,7.80
2019-03-23T03:33:40.485Z,7.80
2019-03-23T03:38:36.420Z,7.90
2019-03-23T03:43:32.352Z,7.87
2019-03-23T03:48:28.290Z,7.30
2019-03-23T03:53:24.235Z,8.10
2019-03-23T03:58:20.181Z,8.03
2019-03-23T04:03:16.105Z,8.47
2019-03-23T04:08:12.350Z,8.90
2019-03-23T04:13:08.353Z,8.07
2019-03-23T04:18:04.333Z,12.50
2019-03-23T04:23:00.265Z,11.13
2019-03-23T04:27:56.210Z,17.63
2019-03-23T04:32:52.126Z,14.50
2019-03-23T04:37:48.161Z,19.07
2019-03-23T04:42:44.079Z,26.33
2019-03-23T04:47:40.134Z,31.87
2019-03-23T04:52:36.156Z,29.90
2019-03-23T04:57:32.092Z,47.97
2019-03-23T05:02:28.081Z,34.30
2019-03-23T05:07:24.004Z,33.07
2019-03-23T05:12:19.947Z,58.10
2019-03-23T05:17:15.867Z,60.63
2019-03-23T05:22:11.766Z,63.10
2019-03-23T05:27:07.691Z,56.20
2019-03-23T05:32:03.739Z,59.10
2019-03-23T05:36:59.677Z,28.33
2019-03-23T05:41:55.595Z,57.67
2019-03-23T05:46:51.524Z,53.90
2019-03-23T05:51:47.440Z,43.33
2019-03-23T05:56:43.444Z,42.23
2019-03-23T06:01:39.359Z,55.53
2019-03-23T06:06:35.267Z,65.83
2019-03-23T06:11:31.198Z,57.80
2019-03-23T06:16:27.115Z,48.53
2019-03-23T06:21:23.196Z,53.93
2019-03-23T06:26:19.110Z,54.70
2019-03-23T06:31:15.069Z,44.97
2019-03-23T06:36:10.995Z,30.47
2019-03-23T06:41:06.932Z,54.33
2019-03-23T06:46:02.913Z,43.37
2019-03-23T06:50:58.843Z,56.40
2019-03-23T06:55:54.762Z,62.90
2019-03-23T07:00:50.708Z,49.53
2019-03-23T07:05:46.748Z,42.60
2019-03-23T07:10:42.665Z,64.90
2019-03-23T07:15:38.582Z,62.93
2019-03-23T07:20:34.494Z,54.83
2019-03-23T07:25:30.417Z,53.57
2019-03-23T07:30:26.342Z,49.87
2019-03-23T07:35:22.256Z,51.30
2019-03-23T07:40:18.189Z,22.87
2019-03-23T07:45:14.801Z,31.67
2019-03-23T07:50:12.026Z,52.87
2019-03-23T07:55:12.517Z,48.60
2019-03-23T08:00:11.568Z,30.43
2019-03-23T08:05:07.650Z,46.40
2019-03-23T08:10:04.627Z,51.77
2019-03-23T08:15:04.582Z,52.37
2019-03-23T08:20:00.512Z,48.10
2019-03-23T08:25:00.135Z,31.17
2019-03-23T08:29:56.218Z,45.33
2019-03-23T08:34:52.130Z,50.10
2019-03-23T08:39:48.976Z,51.60
2019-03-23T08:44:44.880Z,48.20
2019-03-23T08:49:40.830Z,42.97
2019-03-23T08:54:37.637Z,42.93
2019-03-23T08:59:33.553Z,43.90
2019-03-23T09:04:29.471Z,45.97
2019-03-23T09:09:25.502Z,46.70
2019-03-23T09:14:23.461Z,45.30
2019-03-23T09:19:19.255Z,45.40
2019-03-23T09:24:21.206Z,43.20
2019-03-23T09:29:17.248Z,46.00
2019-03-23T09:34:13.160Z,26.97
2019-03-23T09:39:09.105Z,42.30
2019-03-23T09:44:05.021Z,42.77
2019-03-23T09:49:01.056Z,41.70
2019-03-23T09:53:57.020Z,39.97
2019-03-23T09:58:54.829Z,43.40
2019-03-23T10:03:50.844Z,38.43
2019-03-23T10:08:46.762Z,39.47
2019-03-23T10:13:45.017Z,48.23
2019-03-23T10:18:40.932Z,46.60
2019-03-23T10:23:43.631Z,48.50
2019-03-23T10:28:39.649Z,44.40
2019-03-23T10:33:35.574Z,47.07
2019-03-23T10:38:31.549Z,46.73
2019-03-23T10:43:27.463Z,45.30
2019-03-23T10:48:24.434Z,46.30
2019-03-23T10:53:23.182Z,43.73
2019-03-23T10:58:18.300Z,44.67
2019-03-23T11:03:14.298Z,40.57
2019-03-23T11:08:14.989Z,45.80
2019-03-23T11:13:11.535Z,43.27
2019-03-23T11:18:08.435Z,42.23
2019-03-23T11:23:06.802Z,41.40
2019-03-23T11:28:03.029Z,44.63
2019-03-23T11:32:59.374Z,45.50
2019-03-23T11:37:56.020Z,48.17
2019-03-23T11:42:56.707Z,47.87
2019-03-23T11:47:54.892Z,46.07
2019-03-23T11:52:50.824Z,45.37
2019-03-23T11:57:48.035Z,43.37
2019-03-23T12:02:43.959Z,34.93
2019-03-23T12:07:39.894Z,43.80
2019-03-23T12:12:36.691Z,36.77
2019-03-23T12:17:35.789Z,45.50
2019-03-23T12:22:33.359Z,43.23
2019-03-23T12:27:31.636Z,42.10
2019-03-23T12:32:28.696Z,43.33
2019-03-23T12:37:24.656Z,41.10
2019-03-23T12:42:20.560Z,43.23
2019-03-23T12:47:16.481Z,40.23
2019-03-23T12:52:12.491Z,29.10
2019-03-23T12:57:08.429Z,38.00
2019-03-23T13:02:04.488Z,38.13
2019-03-23T13:07:00.509Z,39.27
2019-03-23T13:11:56.424Z,41.47
2019-03-23T13:16:52.396Z,40.27
2019-03-23T13:21:49.324Z,38.93
2019-03-23T13:26:45.348Z,41.20
2019-03-23T13:31:41.275Z,28.87
2019-03-23T13:36:37.188Z,38.97
2019-03-23T13:41:33.109Z,37.03
2019-03-23T13:46:29.035Z,41.50
2019-03-23T13:51:25.058Z,39.30
2019-03-23T13:56:21.053Z,34.87
2019-03-23T14:01:16.989Z,36.77
2019-03-23T14:06:13.006Z,40.60
2019-03-23T14:11:08.934Z,42.30
2019-03-23T14:16:04.911Z,29.77
2019-03-23T14:21:00.817Z,39.30
2019-03-23T14:25:56.741Z,37.50
2019-03-23T14:30:52.702Z,40.37
2019-03-23T14:35:48.639Z,39.97
2019-03-23T14:40:44.564Z,35.70
2019-03-23T14:45:40.614Z,33.30
2019-03-23T14:50:36.674Z,38.03
2019-03-23T14:55:32.740Z,36.30
2019-03-23T15:00:30.480Z,38.00
2019-03-23T15:05:26.448Z,35.63
2019-03-23T15:10:22.502Z,37.77
2019-03-23T15:15:18.478Z,38.90
2019-03-23T15:20:14.452Z,35.60
2019-03-23T15:25:10.671Z,36.60
2019-03-23T15:30:06.868Z,35.57
2019-03-23T15:35:06.146Z,40.23
2019-03-23T15:40:04.875Z,37.97
2019-03-23T15:45:00.884Z,35.87
2019-03-23T15:49:56.812Z,38.43
2019-03-23T15:54:53.581Z,38.33
2019-03-23T15:59:49.560Z,40.50
2019-03-23T16:04:45.567Z,40.27
2019-03-23T16:09:41.608Z,36.93
2019-03-23T16:14:37.634Z,40.63
2019-03-23T16:19:33.601Z,38.80
2019-03-23T16:24:33.305Z,39.33
2019-03-23T16:29:29.203Z,38.53
2019-03-23T16:34:25.158Z,37.07
2019-03-23T16:39:21.092Z,36.30
2019-03-23T16:44:17.012Z,38.20
2019-03-23T16:49:12.923Z,35.00
2019-03-23T16:54:11.872Z,39.60
2019-03-23T16:59:07.990Z,37.00
2019-03-23T17:04:03.955Z,37.07
2019-03-23T17:08:59.964Z,34.87
2019-03-23T17:13:55.991Z,40.33
2019-03-23T17:18:51.945Z,37.57
2019-03-23T17:23:48.013Z,37.87
2019-03-23T17:28:43.928Z,39.90
2019-03-23T17:33:39.848Z,33.40
2019-03-23T17:38:35.817Z,38.90
2019-03-23T17:43:31.731Z,41.20
2019-03-23T17:48:27.670Z,38.17
2019-03-23T17:53:23.601Z,39.50
2019-03-23T17:58:19.567Z,42.37
2019-03-23T18:03:15.555Z,38.77
2019-03-23T18:08:11.476Z,35.87
2019-03-23T18:13:16.185Z,34.70
2019-03-23T18:18:05.326Z,37.07
2019-03-23T18:23:01.248Z,24.80
2019-03-23T18:27:57.268Z,22.03
2019-03-23T18:32:53.291Z,24.90
2019-03-23T18:37:49.212Z,25.80
2019-03-23T18:42:45.152Z,21.87
2019-03-23T18:47:41.082Z,21.13
2019-03-23T18:52:36.994Z,22.90
2019-03-23T18:57:32.914Z,19.93
2019-03-23T19:02:28.909Z,21.70
2019-03-23T19:07:24.858Z,17.60
2019-03-23T19:12:20.812Z,15.13
2019-03-23T19:17:16.885Z,15.50
2019-03-23T19:22:12.813Z,14.23
2019-03-23T19:27:08.740Z,13.80
2019-03-23T19:32:04.676Z,11.87
2019-03-23T19:37:00.642Z,11.67
2019-03-23T19:41:56.555Z,9.30
2019-03-23T19:46:52.562Z,8.03
2019-03-23T19:51:48.553Z,6.53
2019-03-23T19:56:44.477Z,6.80
2019-03-23T20:01:40.478Z,8.43
2019-03-23T20:06:36.476Z,7.17
2019-03-23T20:11:32.536Z,8.23
2019-03-23T20:16:28.655Z,8.10
2019-03-23T20:21:24.601Z,8.33
2019-03-23T20:26:20.533Z,6.50
2019-03-23T20:31:16.473Z,9.93
2019-03-23T20:36:12.387Z,9.97
2019-03-23T20:41:08.369Z,10.53
2019-03-23T20:46:04.389Z,10.40
2019-03-23T20:51:00.737Z,11.53
2019-03-23T20:55:56.668Z,11.60
2019-03-23T21:00:52.690Z,10.77
2019-03-23T21:05:48.656Z,10.80
2019-03-23T21:10:44.596Z,12.30
2019-03-23T21:15:40.743Z,11.13
2019-03-23T21:20:36.662Z,11.87
2019-03-23T21:25:32.594Z,12.70
2019-03-23T21:30:28.532Z,10.73
2019-03-23T21:35:24.447Z,12.63
2019-03-23T21:40:20.438Z,7.33
2019-03-23T21:45:17.160Z,13.73
2019-03-23T21:50:13.178Z,10.37
2019-03-23T21:55:09.470Z,13.80
2019-03-23T22:00:06.449Z,11.57
2019-03-23T22:05:04.282Z,13.50
2019-03-23T22:10:00.353Z,12.40
2019-03-23T22:14:56.899Z,12.10
2019-03-23T22:19:52.848Z,11.00
2019-03-23T22:24:48.792Z,8.40
2019-03-23T22:29:44.704Z,11.27
2019-03-23T22:34:40.623Z,7.63
2019-03-23T22:39:36.543Z,7.90
2019-03-23T22:44:32.455Z,6.10
2019-03-23T22:49:28.394Z,5.50
2019-03-23T22:54:25.030Z,7.33
2019-03-23T22:59:21.146Z,6.30
2019-03-23T23:04:17.083Z,4.60
2019-03-23T23:09:13.122Z,4.50
2019-03-23T23:14:09.039Z,4.77
2019-03-23T23:19:04.952Z,4.13
2019-03-23T23:24:11.888Z,3.60
2019-03-23T23:29:09.720Z,5.43
2019-03-23T23:34:05.631Z,4.87
2019-03-23T23:39:01.645Z,4.60
2019-03-23T23:43:57.658Z,3.77
2019-03-23T23:48:53.577Z,3.43
2019-03-23T23:58:44.512Z,3.80
